Flight Track Log - Related Links

Times and Time Zones

All times are in EDT time to prevent confusion due to time zone crossing. See the GJS3707 flight status page for this flight to view local times or setup timezone preferences in your user account.

Time Position Orientation Groundspeed Altitude Reporting Facility
EDT Latitude Longitude Course Direction KTS MPH feet Rate Location/Type
Wed 03:11:07 PM 43.6653 -116.2531 27° Northeast 266 306 7,200  Level Salt Lake Center
Wed 03:12:00 PM 43.6602 -115.5421 78° East  Level FlightAware Approximate
Wed 03:12:09 PM 43.6756 -116.1306 83° East 290 334 9,700  Level Salt Lake Center
Wed 03:13:00 PM 43.6786 -115.3689 83° East  Level FlightAware Approximate
Wed 03:13:10 PM 43.6886 -116.0161 81° East 309 356 11,300  Level Salt Lake Center
Wed 03:14:00 PM 43.7038 -115.1996 81° East  Level FlightAware Approximate
Wed 03:14:12 PM 43.6983 -115.8581 85° East 367 422 12,900  Level Salt Lake Center
Wed 03:15:00 PM 43.7231 -115.0263 81° East  Level FlightAware Approximate
Wed 03:15:14 PM 43.6986 -115.7175 90° East 381 438 14,500  Level Salt Lake Center
Wed 03:16:15 PM 43.6994 -115.5711 89° East 396 456 16,200 1,659 Climbing Salt Lake Center
Wed 03:17:17 PM 43.7003 -115.3919 90° East 417 480 17,900 1,500 Climbing Salt Lake Center
Wed 03:18:19 PM 43.7078 -115.2319 86° East 438 504 19,300 1,512 Climbing Salt Lake Center
Wed 03:19:20 PM 43.7339 -115.0478 79° East 441 507 21,000 1,317 Climbing Salt Lake Center
Wed 03:20:22 PM 43.7572 -114.8850 79° East 451 519 22,000 1,161 Climbing Salt Lake Center
Wed 03:21:24 PM 43.7831 -114.6892 80° East 465 535 23,400 1,317 Climbing Salt Lake Center
Wed 03:22:25 PM 43.8056 -114.5208 79° East 464 534 24,700 1,268 Climbing Salt Lake Center
Wed 03:23:27 PM 43.8328 -114.3214 79° East 472 543 26,000 1,065 Climbing Salt Lake Center
Wed 03:24:29 PM 43.8550 -114.1497 80° East 474 545 26,900 919 Climbing Salt Lake Center
Wed 03:25:31 PM 43.8778 -113.9744 80° East 482 555 27,900 1,024 Climbing Salt Lake Center
Wed 03:26:32 PM 43.9028 -113.7808 80° East 485 558 29,000 1,073 Climbing Salt Lake Center
Wed 03:27:34 PM 43.9219 -113.5733 83° East 485 558 30,100 1,016 Climbing Salt Lake Center
Wed 03:28:36 PM 43.9275 -113.3956 87° East 483 556 31,100 1,016 Climbing Salt Lake Center
Wed 03:29:38 PM 43.9358 -113.1886 87° East 483 556 32,200 976 Climbing Salt Lake Center
Wed 03:30:39 PM 43.9431 -113.0108 87° East 483 556 33,100 927 Climbing Salt Lake Center
Wed 03:31:41 PM 43.9492 -112.8350 87° East 478 550 34,100 1,016 Climbing Salt Lake Center
Wed 03:32:43 PM 43.9561 -112.6322 87° East 473 544 35,200 919 Climbing Salt Lake Center
Wed 03:33:45 PM 43.9622 -112.4603 87° East 469 540 36,000 829 Climbing Salt Lake Center
Wed 03:34:46 PM 43.9675 -112.2614 88° East 464 534 36,900 488 Climbing Salt Lake Center
Wed 03:35:48 PM 43.9731 -112.0922 87° East 461 531 37,000 48 Climbing Salt Lake Center
Wed 03:36:50 PM 43.9806 -111.8914 87° East 467 537 37,000  Level Salt Lake Center
Wed 03:37:52 PM 43.9836 -111.7119 89° East 483 556 37,000  Level Salt Lake Center
Wed 03:38:53 PM 43.9894 -111.5056 88° East 483 556 37,000  Level Salt Lake Center
Wed 03:39:55 PM 43.9942 -111.3275 88° East 484 557 37,000  Level Salt Lake Center
Wed 03:40:57 PM 43.9986 -111.1211 88° East 482 555 37,000  Level Salt Lake Center
Wed 03:41:59 PM 44.0025 -110.9419 88° East 487 560 37,000  Level Salt Lake Center
Wed 03:43:00 PM 44.0061 -110.7331 89° East 488 562 37,000  Level Salt Lake Center
Wed 03:44:02 PM 44.0094 -110.5544 88° East 486 559 37,000  Level Salt Lake Center
Wed 03:45:04 PM 44.0125 -110.3761 89° East 485 558 37,000  Level Salt Lake Center
Wed 03:46:05 PM 44.0153 -110.1656 89° East 490 564 37,000  Level Salt Lake Center
Wed 03:47:07 PM 44.0167 -109.9883 89° East 483 556 37,000  Level Salt Lake Center
Wed 03:48:08 PM 44.0181 -109.7800 89° East 487 560 37,000  Level Salt Lake Center
Wed 03:49:10 PM 44.0194 -109.6008 89° East 485 558 37,000  Level Salt Lake Center
Wed 03:50:12 PM 44.0206 -109.4164 89° East 484 557 37,000  Level Salt Lake Center
Wed 03:51:13 PM 44.0228 -109.2047 89° East 492 566 37,000  Level Salt Lake Center
Wed 03:52:15 PM 44.0225 -109.0219 90° East 496 571 37,000  Level Salt Lake Center
Wed 03:53:17 PM 44.0219 -108.8058 90° East 501 577 37,000  Level Salt Lake Center
Wed 03:54:18 PM 44.0231 -108.6200 89° East 505 581 37,000  Level Salt Lake Center
Wed 03:55:20 PM 44.0217 -108.4014 90° East 509 586 37,000  Level Salt Lake Center
Wed 03:56:22 PM 44.0211 -108.2133 90° East 510 587 37,000  Level Salt Lake Center
Wed 03:57:23 PM 44.0200 -107.9919 90° East 515 593 37,000  Level Salt Lake Center
Wed 03:58:25 PM 44.0192 -107.8025 90° East 516 594 37,000  Level Salt Lake Center
Wed 03:59:27 PM 44.0158 -107.5783 91° East 522 601 37,000  Level Salt Lake Center
Wed 04:00:28 PM 44.0144 -107.3872 91° East 519 597 37,000  Level Salt Lake Center
Wed 04:01:30 PM 44.0119 -107.1978 91° East 516 594 37,000  Level Salt Lake Center
Wed 04:01:45 PM 44.0114 -107.1319 91° East 520 598 37,000  Level Denver Center
Wed 04:02:32 PM 44.0094 -106.9736 91° East 518 596 37,000  Level Salt Lake Center
Wed 04:03:49 PM 44.0058 -106.7233 91° East 516 594 37,000  Level Denver Center
Wed 04:04:51 PM 44.0022 -106.5350 91° East 511 588 37,000  Level Denver Center
Wed 04:05:52 PM 44.0003 -106.3139 91° East 513 590 37,000  Level Denver Center
Wed 04:06:54 PM 44.0017 -106.1233 89° East 514 592 37,000  Level Denver Center
Wed 04:07:56 PM 44.0033 -105.9014 89° East 515 593 37,000  Level Denver Center
Wed 04:08:58 PM 44.0036 -105.7106 90° East 516 594 37,000  Level Denver Center
Wed 04:10:45 PM 44.0050 -105.3617 90° East 515 593 37,000  Level Salt Lake Center
Wed 04:11:01 PM 44.0036 -105.3289 93° East 516 594 37,000  Level Denver Center
Wed 04:12:03 PM 44.0033 -105.1072 90° East 515 593 37,000  Level Denver Center
Wed 04:13:04 PM 44.0017 -104.8856 91° East 515 593 37,000  Level Denver Center
Wed 04:14:06 PM 44.0017 -104.6953 90° East 514 592 37,000  Level Denver Center
Wed 04:15:08 PM 43.9989 -104.4731 91° East 514 592 37,000  Level Denver Center
Wed 04:16:10 PM 43.9969 -104.2828 91° East 514 592 37,000  Level Denver Center
Wed 04:17:12 PM 43.9944 -104.0628 91° East 512 589 37,000  Level Denver Center
Wed 04:18:13 PM 43.9917 -103.8722 91° East 514 592 37,000  Level Denver Center
Wed 04:19:15 PM 43.9883 -103.6825 91° East 513 590 37,000  Level Denver Center
Wed 04:20:17 PM 43.9847 -103.4622 91° East 510 587 37,000  Level Denver Center
Wed 04:21:19 PM 43.9833 -103.2747 91° East 508 585 37,000  Level Denver Center
Wed 04:22:20 PM 43.9778 -103.0511 92° East 515 593 37,000  Level Denver Center
Wed 04:23:22 PM 43.9714 -102.8611 93° East 516 594 37,000  Level Denver Center
Wed 04:24:23 PM 43.9675 -102.6917 92° East 513 590 37,000  Level Denver Center
Wed 04:25:26 PM 43.9583 -102.4536 93° East 516 594 37,000  Level Denver Center
Wed 04:26:27 PM 43.9511 -102.2542 93° East 517 595 37,000  Level Denver Center
Wed 04:27:29 PM 43.9436 -102.0550 93° East 519 597 37,000  Level Denver Center
Wed 04:28:31 PM 43.9358 -101.8550 93° East 520 598 37,000  Level Denver Center
Wed 04:29:33 PM 43.9322 -101.6222 91° East 511 588 37,000  Level Denver Center
Wed 04:30:35 PM 43.9247 -101.4250 93° East 512 589 37,000  Level Denver Center
Wed 04:31:02 PM 43.9200 -101.3422 94° East 517 595 37,000  Level Minneapolis Center
Wed 04:32:04 PM 43.9144 -101.1475 92° East 513 590 37,000  Level Minneapolis Center
Wed 04:32:38 PM 43.9089 -101.0253 94° East 520 598 37,000  Level Denver Center
Wed 04:33:06 PM 43.9047 -100.9458 94° East 521 600 37,000  Level Minneapolis Center
Wed 04:34:08 PM 43.8944 -100.7094 93° East 517 595 37,000  Level Minneapolis Center
Wed 04:35:10 PM 43.8858 -100.5106 93° East 518 596 37,000  Level Minneapolis Center
Wed 04:36:12 PM 43.8758 -100.3117 94° East 520 598 37,000  Level Minneapolis Center
Wed 04:37:14 PM 43.8667 -100.1131 94° East 520 598 37,000  Level Minneapolis Center
Wed 04:38:16 PM 43.8561 -99.9139 94° East 520 598 37,000  Level Minneapolis Center
Wed 04:39:18 PM 43.8453 -99.7147 94° East 521 600 37,000  Level Minneapolis Center
Wed 04:40:20 PM 43.8325 -99.4756 94° East 521 600 37,000  Level Minneapolis Center
Wed 04:41:22 PM 43.8217 -99.2750 94° East 523 602 37,000  Level Minneapolis Center
Wed 04:42:25 PM 43.8083 -99.0767 95° East 523 602 37,000  Level Minneapolis Center
Wed 04:43:27 PM 43.7881 -98.8803 98° East 519 597 37,000  Level Minneapolis Center
Wed 04:44:29 PM 43.7653 -98.6583 98° East 518 596 37,000  Level Minneapolis Center
Wed 04:45:31 PM 43.7453 -98.4619 98° East 518 596 37,000  Level Minneapolis Center
Wed 04:46:33 PM 43.7244 -98.2650 98° East 518 596 37,000  Level Minneapolis Center
Wed 04:47:35 PM 43.7044 -98.0681 98° East 520 598 37,000  Level Minneapolis Center
Wed 04:48:37 PM 43.6833 -97.8739 98° East 515 593 37,000  Level Minneapolis Center
Wed 04:49:39 PM 43.6572 -97.6397 99° East 516 594 37,000  Level Minneapolis Center
Wed 04:50:41 PM 43.6364 -97.4442 98° East 516 594 37,000  Level Minneapolis Center
Wed 04:51:43 PM 43.6139 -97.2503 99° East 515 593 37,000  Level Minneapolis Center
Wed 04:52:45 PM 43.5919 -97.0561 99° East 516 594 37,000  Level Minneapolis Center
Wed 04:53:47 PM 43.5683 -96.8622 99° East 517 595 37,000  Level Minneapolis Center
Wed 04:54:49 PM 43.5411 -96.6328 99° East 512 589 37,000  Level Minneapolis Center
Wed 04:55:51 PM 43.5181 -96.4386 99° East 517 595 37,000  Level Minneapolis Center
Wed 04:56:54 PM 43.4947 -96.2461 99° East 516 594 37,000  Level Minneapolis Center
Wed 04:57:56 PM 43.4708 -96.0539 100° East 516 594 37,000  Level Minneapolis Center
Wed 04:58:58 PM 43.4461 -95.8606 100° East 517 595 37,000  Level Minneapolis Center
Wed 05:00:00 PM 43.4161 -95.6300 100° East 516 594 37,000  Level Minneapolis Center
Wed 05:01:02 PM 43.3917 -95.4375 100° East 516 594 37,000  Level Minneapolis Center
Wed 05:02:04 PM 43.3661 -95.2467 100° East 513 590 37,000  Level Minneapolis Center
Wed 05:03:06 PM 43.3400 -95.0531 100° East 518 596 37,000  Level Minneapolis Center
Wed 05:04:08 PM 43.3139 -94.8608 101° East 516 594 37,000  Level Minneapolis Center
Wed 05:05:10 PM 43.2814 -94.6317 101° East 514 592 37,000  Level Minneapolis Center
Wed 05:06:12 PM 43.2561 -94.4394 100° East 515 593 37,000  Level Minneapolis Center
Wed 05:07:14 PM 43.2281 -94.2472 101° East 516 594 37,000  Level Minneapolis Center
Wed 05:08:16 PM 43.2014 -94.0583 101° East 520 598 37,000  Level Minneapolis Center
Wed 05:09:19 PM 43.1733 -93.8681 101° East 517 595 37,000  Level Minneapolis Center
Wed 05:10:21 PM 43.1406 -93.6394 101° East 517 595 37,000  Level Minneapolis Center
Wed 05:11:23 PM 43.1128 -93.4492 101° East 517 595 37,000  Level Minneapolis Center
Wed 05:12:25 PM 43.0892 -93.2567 99° East 516 594 37,000  Level Minneapolis Center
Wed 05:13:27 PM 43.0767 -93.0617 95° East 519 597 37,000  Level Minneapolis Center
Wed 05:14:29 PM 43.0642 -92.8675 95° East 518 596 37,000 -726 Level Minneapolis Center
Wed 05:15:31 PM 43.0469 -92.6353 96° East 516 594 35,500 -1,452 Descending Minneapolis Center
Wed 05:16:33 PM 43.0328 -92.4394 96° East 521 600 34,000 -1,452 Descending Minneapolis Center
Wed 05:17:35 PM 43.0192 -92.2408 95° East 527 606 32,500 -1,355 Descending Minneapolis Center
Wed 05:18:37 PM 43.0039 -92.0419 96° East 529 609 31,200 -726 Descending Minneapolis Center
Wed 05:19:39 PM 42.9922 -91.8817 96° East 531 611 31,000 -97 Descending Minneapolis Center
Wed 05:20:41 PM 42.9753 -91.6383 95° East 533 613 31,000 -194 Level Minneapolis Center
Wed 05:21:43 PM 42.9536 -91.3939 97° East 534 615 30,600 -774 Descending Minneapolis Center
Wed 05:22:45 PM 42.9289 -91.2336 102° East 536 617 29,400 -1,440 Descending Minneapolis Center
Wed 05:23:48 PM 42.8906 -91.0058 103° East 521 600 27,600 -1,584 Descending Minneapolis Center
Wed 05:24:50 PM 42.8592 -90.8181 103° East 514 592 26,100 -1,400 Descending Minneapolis Center
Wed 05:25:18 PM 42.8478 -90.7453 102° East 511 588 25,500 -1,333 Descending Chicago Center
Wed 05:26:20 PM 42.8086 -90.5233 103° East 508 585 24,100 -726 Descending Chicago Center
Wed 05:27:22 PM 42.7764 -90.3389 103° East 505 581 24,000 -48 Descending Chicago Center
Wed 05:28:24 PM 42.7456 -90.1589 103° East 498 573 24,000 -144 Level Chicago Center
Wed 05:29:27 PM 42.7136 -89.9808 104° East 491 565 23,700 -1,008 Descending Chicago Center
Wed 05:30:29 PM 42.6792 -89.7772 103° East 483 556 21,900 -1,597 Descending Chicago Center
Wed 05:31:31 PM 42.6475 -89.5992 104° East 484 557 20,400 -1,452 Descending Chicago Center
Wed 05:32:33 PM 42.6144 -89.4194 104° East 489 563 18,900 -1,500 Descending Chicago Center
Wed 05:33:35 PM 42.5831 -89.2444 104° East 484 557 17,300 -919 Descending Chicago Center
Wed 05:34:37 PM 42.5394 -89.0472 107° East 474 545 17,000 -823 Descending Chicago Center
Wed 05:35:39 PM 42.4914 -88.8858 112° Southeast 465 535 15,600 -1,597 Descending Chicago Center
Wed 05:36:41 PM 42.4431 -88.7272 112° Southeast 457 526 13,700 -1,984 Descending Chicago Center
Wed 05:37:43 PM 42.4036 -88.5922 112° Southeast 401 461 11,500 -1,935 Descending Chicago Center
Wed 05:38:45 PM 42.3692 -88.4778 112° Southeast 346 398 9,700 -1,680 Descending Chicago Center
Wed 05:39:48 PM 42.3314 -88.3789 117° Southeast 293 337 8,000 -816 Descending Chicago Center
Wed 05:40:50 PM 42.2661 -88.3567 166° South 240 276 8,000  Level Chicago Center
Wed 05:41:52 PM 42.1953 -88.3350 167° South 220 253 8,000  Level Chicago Center
Wed 05:42:54 PM 42.1342 -88.3206 170° South 224 258 8,000  Level Chicago Center
Wed 05:43:56 PM 42.0756 -88.3053 169° South 218 251 8,000 -339 Level Chicago Center
Wed 05:44:58 PM 42.0169 -88.3028 178° South 211 243 7,300 -774 Descending Chicago Center
Wed 05:46:00 PM 41.9644 -88.2886 169° South 208 239 6,400 -1,403 Descending Chicago Center
Wed 05:47:02 PM 41.9675 -88.1992 87° East 198 228 4,400 -1,378 Descending Chicago Center
Wed 05:48:15 PM 41.9667 -88.1167 91° East 188 216 3,300 -904 Descending Chicago TRACON

Login

Don't have an account? Register now (free) for customized features, flight alerts, and more!